This is the latest recevied weather packets stored in our database for station/object DH9NFM-11. If no packets are shown the sender has not sent any weather packets the latest 10 day(s).
| Time | Temp. | Humidity | Pressure | Rain* | Wind** | Luminosity | Snow |
|---|---|---|---|---|---|---|---|
| 1777769188 | 7.22° C | 82% | 1013.3 hPa | 0 mm | - | - | - |
| 1777765574 | 8.33° C | 79% | 1013.5 hPa | 0 mm | - | - | - |
| 1777764988 | 8.33° C | 79% | 1013.5 hPa | 0 mm | - | - | - |
| 1777763756 | 7.78° C | 82% | 1013.7 hPa | 0 mm | - | - | - |
| 1777762605 | 9.44° C | 76% | 1013.8 hPa | 0 mm | - | - | - |
| 1777761394 | 8.33° C | 80% | 1013.9 hPa | 0 mm | - | - | - |
| 1777759577 | 9.44° C | 77% | 1013.8 hPa | 0 mm | - | - | - |
| 1777757800 | 10° C | 76% | 1013.9 hPa | 0 mm | - | - | - |
| 1777757154 | 10° C | 76% | 1013.9 hPa | 0 mm | - | - | - |
| 1777756548 | 10° C | 75% | 1014 hPa | 0 mm | - | - | - |
| 1777756002 | 10.56° C | 75% | 1014 hPa | 0 mm | - | - | - |
| 1777755397 | 11.11° C | 73% | 1013.9 hPa | 0 mm | - | - | - |
| 1777751156 | 13.33° C | 67% | 1014.1 hPa | 0 mm | - | - | - |
| 1777750550 | 14.44° C | 63% | 1014.1 hPa | 0 mm | - | - | - |
| 1777742796 | 23.89° C | 29% | 1013.7 hPa | 0 mm | - | - | - |
| 1777740999 | 24.44° C | 28% | 1013.9 hPa | 0 mm | - | - | - |
| 1777732589 | 26.11° C | 26% | 1015.5 hPa | 0 mm | - | - | - |
| 1777726592 | 25.56° C | 27% | 1017 hPa | 0 mm | - | - | - |
| 1777725986 | 25.56° C | 27% | 1017.2 hPa | 0 mm | - | - | - |
| 1777721806 | 23.89° C | 31% | 1018.2 hPa | 0 mm | - | - | - |
| 1777718818 | 22.22° C | 35% | 1018.8 hPa | 0 mm | - | - | - |
| 1777718192 | 22.78° C | 33% | 1018.9 hPa | 0 mm | - | - | - |
| 1777713406 | 20.56° C | 38% | 1020 hPa | 0 mm | - | - | - |
| 1777707388 | 16.67° C | 53% | 1020.9 hPa | 0 mm | - | - | - |
| 1777704359 | 12.22° C | 66% | 1021.1 hPa | 0 mm | - | - | - |
* Rain latest hour (hover to see other rain measurements)
** Current wind speed in m/s (hover to see current wind gust speed)